Time;durP1;ratioP1;P1;durP2;ratioP2;P2;SDS_P1;SDS_P2;PMS_P1;PMS_P2;Temp;Humidity;BMP_temperature;BMP_pressure;BME280_temperature;BME280_humidity;BME280_pressure;Samples;Min_cycle;Max_cycle;Signal;HPM_P1;HPM_P2
2021/04/17 00:01:40;;;;;;;5.57;3.30;;;;;;;;;;4407687;32;20176;-77
2021/04/17 00:04:06;;;;;;;9.23;3.80;;;;;;;;;;4407732;32;20215;-77
2021/04/17 00:06:31;;;;;;;6.83;3.40;;;;;;;;;;4409126;32;20173;-77
2021/04/17 00:08:57;;;;;;;5.80;3.17;;;;;;;;;;4407714;32;20200;-77
2021/04/17 00:11:23;;;;;;;9.77;3.70;;;;;;;;;;4421946;32;20230;-76
2021/04/17 00:13:48;;;;;;;7.70;3.77;;;;;;;;;;4407497;32;20629;-76
2021/04/17 00:16:13;;;;;;;6.90;3.60;;;;;;;;;;4408524;32;20162;-76
2021/04/17 00:18:39;;;;;;;5.63;3.30;;;;;;;;;;4408224;32;20236;-75
2021/04/17 00:21:04;;;;;;;7.97;3.37;;;;;;;;;;4422017;32;20164;-76
2021/04/17 00:23:29;;;;;;;6.63;3.20;;;;;;;;;;4421145;32;20628;-75
2021/04/17 00:25:55;;;;;;;7.30;3.10;;;;;;;;;;4407357;32;20218;-76
2021/04/17 00:28:20;;;;;;;5.87;2.67;;;;;;;;;;4421150;32;20492;-76
2021/04/17 00:30:45;;;;;;;6.57;3.07;;;;;;;;;;4421383;32;20153;-76
2021/04/17 00:33:10;;;;;;;6.57;2.80;;;;;;;;;;4407183;32;20162;-77
2021/04/17 00:35:35;;;;;;;9.83;3.07;;;;;;;;;;4421713;32;20173;-76
2021/04/17 00:38:01;;;;;;;5.43;2.77;;;;;;;;;;4407129;32;20225;-77
2021/04/17 00:40:26;;;;;;;8.67;3.10;;;;;;;;;;4407191;32;20244;-77
2021/04/17 00:42:51;;;;;;;5.83;2.93;;;;;;;;;;4421614;32;20134;-77
2021/04/17 00:45:17;;;;;;;5.93;2.90;;;;;;;;;;4407019;32;20169;-77
2021/04/17 00:47:42;;;;;;;7.70;3.07;;;;;;;;;;4420868;32;20250;-77
2021/04/17 00:50:08;;;;;;;9.70;3.10;;;;;;;;;;4407445;32;20582;-76
2021/04/17 00:52:33;;;;;;;6.80;2.93;;;;;;;;;;4407422;32;20161;-77
2021/04/17 00:54:59;;;;;;;8.13;3.00;;;;;;;;;;4421527;32;20134;-76
2021/04/17 00:57:24;;;;;;;9.97;2.80;;;;;;;;;;4421827;32;20210;-75
2021/04/17 00:59:49;;;;;;;5.33;2.73;;;;;;;;;;4407335;32;20224;-77
2021/04/17 01:02:18;;;;;;;6.27;2.70;;;;;;;;;;4422148;32;20141;-75
2021/04/17 01:04:45;;;;;;;8.73;2.70;;;;;;;;;;4406643;32;20262;-76
2021/04/17 01:07:20;;;;;;;4.17;2.80;;;;;;;;;;4407157;32;20165;-76
2021/04/17 01:10:00;;;;;;;6.03;2.73;;;;;;;;;;4406992;32;20614;-76
2021/04/17 01:12:29;;;;;;;7.10;2.60;;;;;;;;;;4421448;32;20126;-76
2021/04/17 01:14:55;;;;;;;7.47;3.10;;;;;;;;;;4420151;32;20564;-76
2021/04/17 01:17:21;;;;;;;4.57;2.80;;;;;;;;;;4406523;32;20177;-76
2021/04/17 01:20:09;;;;;;;8.23;2.90;;;;;;;;;;4407127;32;20166;-78
2021/04/17 01:22:34;;;;;;;5.93;3.20;;;;;;;;;;4407227;32;20173;-77
2021/04/17 01:25:08;;;;;;;6.03;2.90;;;;;;;;;;4407574;32;20600;-77
2021/04/17 01:27:34;;;;;;;7.37;3.47;;;;;;;;;;4407069;32;20220;-77
2021/04/17 01:30:01;;;;;;;7.33;3.63;;;;;;;;;;4406532;32;20161;-77
2021/04/17 01:32:27;;;;;;;7.10;4.10;;;;;;;;;;4406535;32;20488;-77
2021/04/17 01:34:53;;;;;;;7.63;3.50;;;;;;;;;;4420739;32;20511;-77
2021/04/17 01:37:20;;;;;;;7.50;3.80;;;;;;;;;;4406536;32;20181;-77
2021/04/17 01:39:45;;;;;;;8.03;3.70;;;;;;;;;;4406496;32;20177;-77
2021/04/17 01:42:14;;;;;;;8.00;4.00;;;;;;;;;;4407709;32;20226;-77
2021/04/17 01:44:41;;;;;;;9.27;4.00;;;;;;;;;;4420489;32;20153;-77
2021/04/17 01:47:11;;;;;;;9.17;3.67;;;;;;;;;;4406201;32;20170;-77
2021/04/17 01:49:44;;;;;;;6.67;4.23;;;;;;;;;;4406868;32;20513;-77
2021/04/17 01:52:11;;;;;;;8.87;4.00;;;;;;;;;;4406483;32;20199;-77
2021/04/17 01:54:40;;;;;;;8.23;3.97;;;;;;;;;;4406244;32;20184;-77
2021/04/17 01:57:07;;;;;;;7.03;4.03;;;;;;;;;;4406795;32;20200;-77
2021/04/17 01:59:34;;;;;;;8.60;3.73;;;;;;;;;;4420557;32;20134;-76
2021/04/17 02:01:59;;;;;;;10.60;4.07;;;;;;;;;;4406385;32;20166;-77
2021/04/17 02:04:24;;;;;;;8.70;4.10;;;;;;;;;;4406161;32;20196;-77
2021/04/17 02:06:50;;;;;;;5.63;3.60;;;;;;;;;;4406139;32;20185;-76
2021/04/17 02:09:15;;;;;;;11.17;4.40;;;;;;;;;;4407892;32;20165;-76
2021/04/17 02:11:40;;;;;;;7.03;3.77;;;;;;;;;;4394629;32;20231;-76
2021/04/17 02:14:06;;;;;;;8.93;4.30;;;;;;;;;;4406074;32;20499;-76
2021/04/17 02:16:35;;;;;;;8.20;4.20;;;;;;;;;;4406023;32;20208;-76
2021/04/17 02:19:02;;;;;;;9.17;3.90;;;;;;;;;;4406574;32;20169;-76
2021/04/17 02:21:34;;;;;;;8.80;4.00;;;;;;;;;;4406151;32;20162;-76
2021/04/17 02:24:00;;;;;;;6.67;3.67;;;;;;;;;;4406448;32;20166;-76
2021/04/17 02:26:26;;;;;;;7.10;3.80;;;;;;;;;;4406595;32;20192;-76
2021/04/17 02:28:51;;;;;;;10.80;3.90;;;;;;;;;;4408692;32;20183;-76
2021/04/17 02:31:16;;;;;;;7.53;3.70;;;;;;;;;;4422882;32;20141;-76
2021/04/17 02:33:41;;;;;;;8.37;3.67;;;;;;;;;;4409105;32;20542;-76
2021/04/17 02:36:07;;;;;;;8.63;4.10;;;;;;;;;;4409184;32;20180;-76
2021/04/17 02:38:32;;;;;;;7.40;3.83;;;;;;;;;;4408892;32;20292;-76
2021/04/17 02:40:57;;;;;;;7.30;3.47;;;;;;;;;;4423610;32;20156;-77
2021/04/17 02:43:22;;;;;;;8.60;3.87;;;;;;;;;;4422720;32;20495;-76
2021/04/17 02:45:48;;;;;;;7.43;3.63;;;;;;;;;;4408899;32;20161;-76
2021/04/17 02:48:13;;;;;;;10.47;3.83;;;;;;;;;;4408740;32;20181;-77
2021/04/17 02:50:38;;;;;;;7.47;3.77;;;;;;;;;;4409037;32;20192;-77
2021/04/17 02:53:03;;;;;;;6.93;3.60;;;;;;;;;;4409205;32;20158;-77
2021/04/17 02:55:29;;;;;;;7.83;3.70;;;;;;;;;;4408751;32;20225;-77
2021/04/17 02:57:54;;;;;;;11.30;3.90;;;;;;;;;;4422819;32;20129;-77
2021/04/17 03:00:22;;;;;;;9.83;4.47;;;;;;;;;;4409113;32;20471;-77
2021/04/17 03:02:48;;;;;;;10.20;4.40;;;;;;;;;;4409041;32;20154;-76
2021/04/17 03:05:13;;;;;;;9.23;4.90;;;;;;;;;;4408526;32;20161;-76
2021/04/17 03:07:38;;;;;;;12.87;5.60;;;;;;;;;;4408563;32;20166;-76
2021/04/17 03:10:05;;;;;;;9.33;5.57;;;;;;;;;;4409286;32;20211;-77
2021/04/17 03:12:30;;;;;;;11.40;6.10;;;;;;;;;;4408412;32;20192;-76
2021/04/17 03:14:55;;;;;;;14.97;7.20;;;;;;;;;;4408366;32;20162;-77
2021/04/17 03:17:21;;;;;;;11.33;6.63;;;;;;;;;;4422961;32;20160;-76
2021/04/17 03:19:46;;;;;;;13.13;7.00;;;;;;;;;;4408523;32;20154;-76
2021/04/17 03:22:11;;;;;;;17.20;7.20;;;;;;;;;;4408406;32;20170;-77
2021/04/17 03:24:37;;;;;;;14.37;7.10;;;;;;;;;;4408260;32;20191;-78
2021/04/17 03:27:03;;;;;;;12.17;7.17;;;;;;;;;;4408297;32;20205;-77
2021/04/17 03:29:28;;;;;;;12.07;6.93;;;;;;;;;;4408841;32;20161;-76
2021/04/17 03:31:53;;;;;;;13.60;7.13;;;;;;;;;;4422100;32;20193;-76
2021/04/17 03:34:19;;;;;;;12.77;7.20;;;;;;;;;;4422188;32;20141;-77
2021/04/17 03:36:44;;;;;;;12.77;7.20;;;;;;;;;;4408029;32;20188;-77
2021/04/17 03:39:10;;;;;;;12.80;6.93;;;;;;;;;;4407807;32;20233;-76
2021/04/17 03:41:35;;;;;;;12.23;7.27;;;;;;;;;;4421806;32;20161;-76
2021/04/17 03:44:01;;;;;;;14.00;7.87;;;;;;;;;;4408456;32;20165;-76
2021/04/17 03:46:26;;;;;;;16.80;8.23;;;;;;;;;;4408424;32;20453;-77
2021/04/17 03:48:51;;;;;;;17.20;7.17;;;;;;;;;;4422312;32;20146;-77
2021/04/17 03:51:16;;;;;;;16.03;7.33;;;;;;;;;;4423219;32;20138;-77
2021/04/17 03:53:42;;;;;;;13.90;6.93;;;;;;;;;;4408651;32;20289;-77
2021/04/17 03:56:07;;;;;;;15.73;7.13;;;;;;;;;;4408279;32;20184;-77
2021/04/17 03:58:32;;;;;;;18.37;7.27;;;;;;;;;;4408753;32;20718;-77
2021/04/17 04:00:57;;;;;;;13.20;6.50;;;;;;;;;;4408334;32;20548;-77
2021/04/17 04:03:23;;;;;;;11.37;6.23;;;;;;;;;;4407984;32;20212;-77
2021/04/17 04:05:48;;;;;;;13.90;6.60;;;;;;;;;;4422236;32;20146;-76
2021/04/17 04:08:13;;;;;;;14.77;6.50;;;;;;;;;;4407690;32;20181;-76
2021/04/17 04:10:38;;;;;;;14.63;7.13;;;;;;;;;;4408132;32;20162;-77
2021/04/17 04:13:05;;;;;;;13.93;6.83;;;;;;;;;;4407965;32;20211;-76
2021/04/17 04:15:30;;;;;;;13.13;6.63;;;;;;;;;;4407948;32;20158;-75
2021/04/17 04:17:55;;;;;;;16.93;7.73;;;;;;;;;;4421738;32;20134;-77
2021/04/17 04:20:21;;;;;;;18.77;7.93;;;;;;;;;;4407530;32;20213;-77
2021/04/17 04:22:46;;;;;;;13.27;6.73;;;;;;;;;;4407416;32;20514;-77
2021/04/17 04:25:11;;;;;;;16.40;7.30;;;;;;;;;;4407367;32;20170;-77
2021/04/17 04:27:37;;;;;;;16.30;7.20;;;;;;;;;;4407622;32;20187;-77
2021/04/17 04:30:04;;;;;;;16.93;7.97;;;;;;;;;;4407810;32;20204;-77
2021/04/17 04:32:29;;;;;;;16.63;7.73;;;;;;;;;;4407232;32;20169;-76
2021/04/17 04:34:55;;;;;;;12.67;6.93;;;;;;;;;;4407257;32;20204;-76
2021/04/17 04:37:20;;;;;;;13.07;7.13;;;;;;;;;;4394629;32;20499;-76
2021/04/17 04:39:45;;;;;;;11.37;6.53;;;;;;;;;;4421509;32;20168;-77
2021/04/17 04:42:11;;;;;;;17.03;6.70;;;;;;;;;;4407454;32;20168;-76
2021/04/17 04:44:36;;;;;;;15.27;7.63;;;;;;;;;;4407635;32;20234;-77
2021/04/17 04:47:01;;;;;;;14.73;8.47;;;;;;;;;;4407104;32;20182;-76
2021/04/17 04:49:27;;;;;;;13.67;7.00;;;;;;;;;;4407673;32;20196;-76
2021/04/17 04:51:52;;;;;;;18.60;8.03;;;;;;;;;;4407058;32;20549;-78
2021/04/17 04:54:17;;;;;;;15.60;7.60;;;;;;;;;;4421508;32;20163;-77
2021/04/17 04:56:42;;;;;;;16.10;8.07;;;;;;;;;;4408144;32;20572;-77
2021/04/17 04:59:08;;;;;;;16.67;7.93;;;;;;;;;;4422113;32;20134;-77
2021/04/17 05:01:33;;;;;;;16.33;7.23;;;;;;;;;;4407356;32;20188;-76
2021/04/17 05:03:58;;;;;;;15.27;7.47;;;;;;;;;;4406936;32;20184;-78
2021/04/17 05:06:23;;;;;;;13.77;6.60;;;;;;;;;;4407097;32;20191;-77
2021/04/17 05:08:48;;;;;;;19.57;8.20;;;;;;;;;;4407118;32;20509;-76
2021/04/17 05:11:14;;;;;;;12.97;6.97;;;;;;;;;;4420586;32;20506;-77
2021/04/17 05:13:39;;;;;;;14.70;6.80;;;;;;;;;;4421085;32;20182;-77
2021/04/17 05:16:04;;;;;;;14.00;6.83;;;;;;;;;;4406648;32;20165;-76
2021/04/17 05:18:30;;;;;;;13.83;6.93;;;;;;;;;;4407165;32;20166;-77
2021/04/17 05:20:55;;;;;;;12.33;6.73;;;;;;;;;;4406786;32;20170;-76
2021/04/17 05:23:20;;;;;;;18.33;7.53;;;;;;;;;;4406580;32;20188;-76
2021/04/17 05:25:45;;;;;;;15.77;7.63;;;;;;;;;;4420384;32;20311;-77
2021/04/17 05:28:11;;;;;;;13.10;6.87;;;;;;;;;;4406593;32;20208;-76
2021/04/17 05:30:37;;;;;;;21.97;7.63;;;;;;;;;;4406608;32;20161;-77
2021/04/17 05:33:02;;;;;;;15.73;7.53;;;;;;;;;;4406525;32;20177;-76
2021/04/17 05:35:27;;;;;;;13.80;6.63;;;;;;;;;;4406640;32;20606;-77
2021/04/17 05:37:53;;;;;;;13.63;7.13;;;;;;;;;;4406394;32;20217;-76
2021/04/17 05:40:18;;;;;;;14.50;7.27;;;;;;;;;;4406995;32;20495;-77
2021/04/17 05:42:43;;;;;;;14.37;7.57;;;;;;;;;;4420685;32;20138;-73
2021/04/17 05:45:09;;;;;;;12.93;6.30;;;;;;;;;;4421831;32;20487;-75
2021/04/17 05:47:34;;;;;;;13.37;6.40;;;;;;;;;;4406091;32;20199;-76
2021/04/17 05:50:00;;;;;;;15.80;6.70;;;;;;;;;;4394193;32;20161;-77
2021/04/17 05:52:25;;;;;;;17.03;7.20;;;;;;;;;;4406291;32;20161;-75
2021/04/17 05:54:50;;;;;;;14.40;6.57;;;;;;;;;;4407437;32;20211;-76
2021/04/17 05:57:15;;;;;;;12.37;6.73;;;;;;;;;;4406813;32;20633;-76
2021/04/17 05:59:40;;;;;;;12.47;5.73;;;;;;;;;;4406290;32;20169;-76
2021/04/17 06:02:06;;;;;;;13.40;6.40;;;;;;;;;;4407548;32;20658;-75
2021/04/17 06:04:32;;;;;;;13.53;6.30;;;;;;;;;;4409298;32;20595;-76
2021/04/17 06:06:57;;;;;;;10.60;6.43;;;;;;;;;;4409547;32;20174;-75
2021/04/17 06:09:22;;;;;;;13.60;6.90;;;;;;;;;;4409296;32;20547;-75
2021/04/17 06:11:48;;;;;;;11.13;6.30;;;;;;;;;;4409245;32;20192;-77
2021/04/17 06:14:13;;;;;;;14.73;5.87;;;;;;;;;;4409205;32;20620;-77
2021/04/17 06:16:38;;;;;;;12.33;6.33;;;;;;;;;;4409771;32;20162;-74
2021/04/17 06:19:03;;;;;;;8.32;5.32;;;;;;;;;;4409416;32;20189;-76
2021/04/17 06:21:28;;;;;;;11.27;5.87;;;;;;;;;;4409583;32;20292;-76
2021/04/17 06:23:54;;;;;;;13.93;5.37;;;;;;;;;;4409129;32;20673;-76
2021/04/17 06:26:19;;;;;;;11.50;5.87;;;;;;;;;;4408766;32;20174;-74
2021/04/17 06:28:44;;;;;;;10.67;5.40;;;;;;;;;;4408746;32;20192;-74
2021/04/17 06:31:09;;;;;;;13.77;5.60;;;;;;;;;;4408783;32;20192;-72
2021/04/17 06:33:35;;;;;;;12.43;5.73;;;;;;;;;;4410517;32;20221;-75
2021/04/17 06:36:03;;;;;;;8.40;5.07;;;;;;;;;;4423313;32;20142;-76
2021/04/17 06:38:28;;;;;;;10.37;4.83;;;;;;;;;;4409118;32;20476;-73
2021/04/17 06:40:53;;;;;;;15.70;6.13;;;;;;;;;;4422633;32;20164;-75
2021/04/17 06:43:22;;;;;;;15.53;5.93;;;;;;;;;;4422998;32;20555;-75
2021/04/17 06:45:48;;;;;;;9.63;5.27;;;;;;;;;;4423407;32;20150;-75
2021/04/17 06:48:15;;;;;;;11.33;5.87;;;;;;;;;;4408632;32;20534;-76
2021/04/17 06:50:41;;;;;;;13.60;5.50;;;;;;;;;;4409231;32;20220;-75
2021/04/17 06:53:11;;;;;;;12.03;5.10;;;;;;;;;;4408559;32;20590;-77
2021/04/17 06:55:36;;;;;;;12.40;5.57;;;;;;;;;;4408562;32;20177;-73
2021/04/17 06:58:02;;;;;;;11.50;4.90;;;;;;;;;;4422288;32;20210;-74
2021/04/17 07:00:27;;;;;;;12.53;5.30;;;;;;;;;;4408119;32;20161;-73
2021/04/17 07:02:52;;;;;;;14.83;4.87;;;;;;;;;;4408994;32;20227;-72
2021/04/17 07:05:18;;;;;;;12.97;5.23;;;;;;;;;;4423063;32;20535;-75
2021/04/17 07:07:43;;;;;;;11.10;5.00;;;;;;;;;;4423054;32;20161;-74
2021/04/17 07:10:09;;;;;;;12.17;5.23;;;;;;;;;;4408904;32;20184;-73
2021/04/17 07:12:34;;;;;;;14.20;4.93;;;;;;;;;;4422996;32;20145;-74
2021/04/17 07:15:04;;;;;;;11.33;4.73;;;;;;;;;;4407496;32;20599;-72
2021/04/17 07:17:31;;;;;;;10.40;4.97;;;;;;;;;;4423913;32;20146;-73
2021/04/17 07:20:00;;;;;;;8.37;4.57;;;;;;;;;;4409284;32;20165;-75
2021/04/17 07:22:25;;;;;;;11.90;4.40;;;;;;;;;;4407837;32;20490;-75
2021/04/17 07:24:54;;;;;;;11.93;4.30;;;;;;;;;;4422687;32;20411;-72
2021/04/17 07:27:30;;;;;;;8.83;4.00;;;;;;;;;;4408257;32;20269;-75
2021/04/17 07:29:55;;;;;;;8.97;4.30;;;;;;;;;;4408017;32;20220;-73
2021/04/17 07:32:20;;;;;;;8.33;4.50;;;;;;;;;;4407932;32;20509;-74
2021/04/17 07:35:04;;;;;;;7.03;3.73;;;;;;;;;;4407876;32;20269;-70
2021/04/17 07:37:30;;;;;;;8.40;4.53;;;;;;;;;;4406626;32;20200;-73
2021/04/17 07:39:55;;;;;;;9.40;4.13;;;;;;;;;;4407157;32;20188;-75
2021/04/17 07:42:20;;;;;;;12.50;4.70;;;;;;;;;;4422869;32;20137;-74
2021/04/17 07:44:48;;;;;;;10.13;4.70;;;;;;;;;;4407519;32;20196;-74
2021/04/17 07:47:29;;;;;;;10.63;4.73;;;;;;;;;;4407363;32;20281;-73
2021/04/17 07:50:02;;;;;;;10.80;4.73;;;;;;;;;;4422717;32;20160;-75
2021/04/17 07:52:31;;;;;;;6.30;4.40;;;;;;;;;;4407626;32;20598;-74
2021/04/17 07:54:56;;;;;;;9.53;4.03;;;;;;;;;;4421332;32;20133;-75
2021/04/17 07:57:29;;;;;;;7.80;4.30;;;;;;;;;;4407716;32;20595;-75
2021/04/17 07:59:55;;;;;;;9.73;4.90;;;;;;;;;;4408056;32;20178;-75
2021/04/17 08:02:20;;;;;;;8.67;4.00;;;;;;;;;;4407550;32;20579;-71
2021/04/17 08:04:45;;;;;;;10.67;4.20;;;;;;;;;;4407073;32;20529;-69
2021/04/17 08:07:10;;;;;;;7.47;4.20;;;;;;;;;;4407286;32;20161;-73
2021/04/17 08:09:36;;;;;;;14.10;4.60;;;;;;;;;;4421613;32;20133;-74
2021/04/17 08:12:02;;;;;;;11.67;4.10;;;;;;;;;;4407356;32;20505;-75
2021/04/17 08:14:28;;;;;;;9.87;4.00;;;;;;;;;;4421740;32;20574;-73
2021/04/17 08:16:54;;;;;;;7.07;3.80;;;;;;;;;;4421535;32;20172;-73
2021/04/17 08:19:20;;;;;;;9.20;3.90;;;;;;;;;;4407455;32;20277;-77
2021/04/17 08:21:45;;;;;;;9.40;3.50;;;;;;;;;;4407268;32;20665;-72
2021/04/17 08:24:12;;;;;;;6.40;3.30;;;;;;;;;;4421356;32;20138;-74
2021/04/17 08:26:37;;;;;;;6.00;2.70;;;;;;;;;;4419953;32;20207;-74
2021/04/17 08:29:03;;;;;;;5.50;2.60;;;;;;;;;;4407838;32;20553;-76
2021/04/17 08:31:31;;;;;;;6.47;2.93;;;;;;;;;;4394747;32;20221;-77
2021/04/17 08:34:08;;;;;;;6.13;2.43;;;;;;;;;;4407116;32;20484;-76
2021/04/17 08:36:34;;;;;;;3.33;2.27;;;;;;;;;;4420766;32;20168;-72
2021/04/17 08:38:59;;;;;;;5.43;2.27;;;;;;;;;;4407012;32;20577;-75
2021/04/17 08:41:38;;;;;;;5.80;1.87;;;;;;;;;;4406949;32;20223;-74
2021/04/17 08:44:21;;;;;;;5.97;2.50;;;;;;;;;;4421361;32;20169;-74
2021/04/17 08:46:47;;;;;;;7.40;2.60;;;;;;;;;;4406670;32;20169;-73
2021/04/17 08:49:19;;;;;;;4.90;2.43;;;;;;;;;;4407170;32;20573;-75
2021/04/17 08:51:44;;;;;;;5.83;2.57;;;;;;;;;;4406667;32;20235;-74
2021/04/17 08:54:09;;;;;;;4.63;2.17;;;;;;;;;;4406795;32;20217;-74
2021/04/17 08:56:52;;;;;;;5.10;2.27;;;;;;;;;;4420712;32;20153;-75
2021/04/17 08:59:28;;;;;;;7.20;2.00;;;;;;;;;;4406965;32;20503;-74
2021/04/17 09:01:54;;;;;;;6.27;1.77;;;;;;;;;;4406933;32;20235;-75
2021/04/17 09:04:21;;;;;;;6.00;1.87;;;;;;;;;;4406690;32;20211;-73
2021/04/17 09:06:47;;;;;;;4.37;1.73;;;;;;;;;;4406375;32;20192;-76
2021/04/17 09:09:16;;;;;;;7.77;2.10;;;;;;;;;;4420284;32;20138;-73
2021/04/17 09:11:51;;;;;;;7.17;2.00;;;;;;;;;;4406328;32;20166;-75
2021/04/17 09:14:29;;;;;;;4.93;1.77;;;;;;;;;;4406998;32;20165;-72
2021/04/17 09:16:56;;;;;;;5.60;1.70;;;;;;;;;;4420290;32;20550;-74
2021/04/17 09:19:48;;;;;;;3.90;1.90;;;;;;;;;;4405837;32;20218;-73
2021/04/17 09:22:33;;;;;;;4.23;1.70;;;;;;;;;;4406851;32;20184;-71
2021/04/17 09:25:21;;;;;;;4.80;1.97;;;;;;;;;;4406661;32;20189;-73
2021/04/17 09:27:50;;;;;;;3.80;1.77;;;;;;;;;;4405424;32;20173;-74
2021/04/17 09:30:19;;;;;;;3.50;1.80;;;;;;;;;;4406241;32;20166;-75
2021/04/17 09:32:45;;;;;;;3.57;1.90;;;;;;;;;;4406385;32;20166;-75
2021/04/17 09:35:11;;;;;;;2.80;1.90;;;;;;;;;;4406212;32;20191;-71
2021/04/17 09:37:36;;;;;;;4.73;1.70;;;;;;;;;;4406871;32;20598;-75
2021/04/17 09:40:03;;;;;;;5.30;1.70;;;;;;;;;;4406054;32;20606;-76
2021/04/17 09:42:31;;;;;;;5.47;1.80;;;;;;;;;;4403888;32;20200;-75
2021/04/17 09:44:56;;;;;;;4.20;1.90;;;;;;;;;;4403760;32;20200;-74
2021/04/17 09:47:23;;;;;;;2.78;1.50;;;;;;;;;;4403196;32;20170;-75
2021/04/17 09:49:50;;;;;;;3.00;1.35;;;;;;;;;;4404523;32;20150;-73
2021/04/17 09:52:20;;;;;;;3.85;1.70;;;;;;;;;;4404142;32;20166;-73
2021/04/17 09:54:45;;;;;;;5.33;2.10;;;;;;;;;;4403125;32;20231;-75
2021/04/17 09:57:11;;;;;;;3.70;1.93;;;;;;;;;;4406078;32;20161;-83
2021/04/17 09:59:36;;;;;;;3.80;1.60;;;;;;;;;;4406080;32;20217;-82
2021/04/17 10:02:03;;;;;;;4.30;1.70;;;;;;;;;;4406096;32;20188;-75
2021/04/17 10:04:47;;;;;;;3.70;1.73;;;;;;;;;;4406239;32;20575;-70
2021/04/17 10:07:13;;;;;;;5.45;1.90;;;;;;;;;;4405709;32;20204;-66
2021/04/17 10:09:38;;;;;;;3.78;1.52;;;;;;;;;;4419846;32;20231;-69
2021/04/17 10:12:04;;;;;;;5.05;2.25;;;;;;;;;;4419845;32;20257;-69
2021/04/17 10:14:30;;;;;;;4.90;1.67;;;;;;;;;;4420222;32;20493;-68
2021/04/17 10:16:55;;;;;;;3.62;1.80;;;;;;;;;;4420543;32;20183;-69
2021/04/17 10:19:20;;;;;;;5.50;1.80;;;;;;;;;;4405864;32;20166;-67
2021/04/17 10:21:47;;;;;;;3.10;1.60;;;;;;;;;;4419229;32;20430;-71
2021/04/17 10:24:18;;;;;;;2.03;1.30;;;;;;;;;;4419032;32;20177;-67
2021/04/17 10:27:04;;;;;;;4.60;1.90;;;;;;;;;;4405114;32;20234;-68
2021/04/17 10:29:49;;;;;;;6.22;1.77;;;;;;;;;;4420085;32;20141;-68
2021/04/17 10:32:14;;;;;;;3.00;1.70;;;;;;;;;;4419725;32;20180;-65
2021/04/17 10:34:41;;;;;;;3.87;1.73;;;;;;;;;;4420905;32;20536;-66
2021/04/17 10:37:08;;;;;;;4.00;1.70;;;;;;;;;;4419608;32;20137;-69
2021/04/17 10:39:33;;;;;;;4.15;1.85;;;;;;;;;;4421269;32;20232;-70
2021/04/17 10:42:00;;;;;;;3.92;1.65;;;;;;;;;;4405661;32;20216;-68
2021/04/17 10:44:25;;;;;;;6.03;2.00;;;;;;;;;;4406155;32;20162;-66
2021/04/17 10:46:54;;;;;;;3.78;2.00;;;;;;;;;;4405135;32;20682;-70
2021/04/17 10:49:38;;;;;;;3.37;1.60;;;;;;;;;;4406960;32;20268;-67
2021/04/17 10:52:06;;;;;;;2.62;1.58;;;;;;;;;;4408217;32;20258;-68
2021/04/17 10:54:32;;;;;;;4.93;1.45;;;;;;;;;;4405405;32;20200;-67
2021/04/17 10:56:59;;;;;;;7.57;2.00;;;;;;;;;;4407278;32;20138;-67
2021/04/17 10:59:25;;;;;;;4.30;1.67;;;;;;;;;;4407903;32;20138;-70
2021/04/17 11:01:50;;;;;;;6.90;1.85;;;;;;;;;;4407237;32;20134;-70
2021/04/17 11:04:15;;;;;;;5.28;1.50;;;;;;;;;;4405601;32;20162;-70
2021/04/17 11:06:46;;;;;;;4.53;1.58;;;;;;;;;;4407312;32;20142;-70
2021/04/17 11:09:13;;;;;;;5.32;1.70;;;;;;;;;;4407612;32;20123;-68
2021/04/17 11:11:51;;;;;;;3.08;1.55;;;;;;;;;;4408113;32;20452;-68
2021/04/17 11:14:19;;;;;;;3.65;1.67;;;;;;;;;;4422432;32;20218;-67
2021/04/17 11:16:50;;;;;;;4.30;1.80;;;;;;;;;;4422254;32;20186;-66
2021/04/17 11:19:42;;;;;;;3.28;1.83;;;;;;;;;;4407618;32;20219;-69
2021/04/17 11:22:07;;;;;;;3.20;1.60;;;;;;;;;;4419087;32;20208;-67
2021/04/17 11:24:33;;;;;;;6.03;1.83;;;;;;;;;;4421320;32;20181;-70
2021/04/17 11:26:58;;;;;;;3.10;1.60;;;;;;;;;;4421648;32;20278;-68
2021/04/17 11:29:23;;;;;;;4.18;1.70;;;;;;;;;;4421393;32;20214;-67
2021/04/17 11:31:48;;;;;;;6.00;1.70;;;;;;;;;;4408590;32;20173;-65
2021/04/17 11:34:15;;;;;;;3.78;2.03;;;;;;;;;;4423042;32;20184;-70
2021/04/17 11:36:40;;;;;;;3.53;1.60;;;;;;;;;;4408306;32;20165;-68
2021/04/17 11:39:06;;;;;;;5.35;1.60;;;;;;;;;;4421605;32;20183;-68
2021/04/17 11:41:31;;;;;;;4.12;1.73;;;;;;;;;;4422172;32;20429;-70
2021/04/17 11:43:57;;;;;;;3.67;1.58;;;;;;;;;;4421919;32;20185;-70
2021/04/17 11:46:22;;;;;;;3.95;1.85;;;;;;;;;;4421900;32;20167;-70
2021/04/17 11:48:50;;;;;;;4.10;1.67;;;;;;;;;;4404762;32;20587;-69
2021/04/17 11:51:17;;;;;;;3.87;2.00;;;;;;;;;;4405419;32;20158;-69
2021/04/17 11:53:42;;;;;;;7.93;1.83;;;;;;;;;;4405938;32;20494;-69
2021/04/17 11:56:08;;;;;;;5.47;1.80;;;;;;;;;;4403734;32;20251;-67
2021/04/17 11:58:33;;;;;;;2.87;1.40;;;;;;;;;;4406050;32;20516;-70
2021/04/17 12:00:58;;;;;;;3.67;1.58;;;;;;;;;;4405858;32;20191;-70
2021/04/17 12:03:23;;;;;;;3.47;1.60;;;;;;;;;;4404532;32;20189;-69
2021/04/17 12:05:53;;;;;;;3.83;1.52;;;;;;;;;;4407082;32;20137;-70
2021/04/17 12:08:18;;;;;;;3.17;1.67;;;;;;;;;;4400471;32;20185;-70
2021/04/17 12:10:44;;;;;;;2.80;1.70;;;;;;;;;;4405296;32;20143;-68
2021/04/17 12:13:09;;;;;;;2.90;1.80;;;;;;;;;;4405839;32;20142;-68
2021/04/17 12:15:35;;;;;;;3.72;1.58;;;;;;;;;;4406335;32;20187;-65
2021/04/17 12:18:00;;;;;;;3.67;1.83;;;;;;;;;;4406324;32;20154;-70
2021/04/17 12:20:25;;;;;;;3.87;1.90;;;;;;;;;;4406130;32;20139;-68
2021/04/17 12:22:51;;;;;;;4.03;1.80;;;;;;;;;;4406168;32;20209;-66
2021/04/17 12:25:17;;;;;;;3.45;1.83;;;;;;;;;;4407531;32;20146;-67
2021/04/17 12:27:43;;;;;;;4.32;2.12;;;;;;;;;;4404410;32;20170;-67
2021/04/17 12:30:08;;;;;;;4.45;1.80;;;;;;;;;;4405724;32;20172;-68
2021/04/17 12:32:33;;;;;;;5.47;2.05;;;;;;;;;;4405578;32;20548;-70
2021/04/17 12:34:59;;;;;;;4.70;2.10;;;;;;;;;;4389616;32;20246;-70
2021/04/17 12:37:24;;;;;;;4.05;1.92;;;;;;;;;;4391102;32;20161;-70
2021/04/17 12:39:49;;;;;;;5.57;2.10;;;;;;;;;;4389225;32;20197;-70
2021/04/17 12:42:15;;;;;;;6.00;1.90;;;;;;;;;;4390758;32;20208;-69
2021/04/17 12:44:40;;;;;;;2.30;1.92;;;;;;;;;;4388838;32;20555;-69
2021/04/17 12:47:05;;;;;;;5.25;1.90;;;;;;;;;;4390481;32;20197;-68
2021/04/17 12:49:30;;;;;;;2.87;1.90;;;;;;;;;;4405811;32;20135;-69
2021/04/17 12:51:56;;;;;;;3.97;1.83;;;;;;;;;;4403940;32;20165;-68
2021/04/17 12:54:21;;;;;;;3.70;1.60;;;;;;;;;;4405716;32;20138;-68
2021/04/17 12:56:46;;;;;;;4.15;1.95;;;;;;;;;;4405540;32;20227;-68
2021/04/17 12:59:12;;;;;;;4.25;2.22;;;;;;;;;;4404891;32;20261;-69
2021/04/17 13:01:37;;;;;;;4.40;1.85;;;;;;;;;;4405383;32;20193;-71
2021/04/17 13:04:02;;;;;;;6.45;1.90;;;;;;;;;;4404031;32;20724;-67
2021/04/17 13:06:29;;;;;;;4.95;1.80;;;;;;;;;;4404546;32;20170;-70
2021/04/17 13:08:55;;;;;;;4.15;1.87;;;;;;;;;;4405099;32;20146;-69
2021/04/17 13:11:20;;;;;;;5.53;2.00;;;;;;;;;;4403233;32;20181;-70
2021/04/17 13:13:45;;;;;;;4.12;2.10;;;;;;;;;;4404819;32;20150;-67
2021/04/17 13:16:11;;;;;;;7.53;2.17;;;;;;;;;;4404865;32;20142;-71
2021/04/17 13:18:36;;;;;;;6.43;1.95;;;;;;;;;;4405238;32;20138;-68
2021/04/17 13:21:02;;;;;;;4.95;1.85;;;;;;;;;;4403894;32;20162;-68
2021/04/17 13:23:27;;;;;;;4.22;2.00;;;;;;;;;;4404842;32;20176;-68
2021/04/17 13:25:52;;;;;;;4.35;2.17;;;;;;;;;;4406172;32;20142;-68
2021/04/17 13:28:17;;;;;;;4.00;2.00;;;;;;;;;;4404400;32;20532;-70
2021/04/17 13:30:43;;;;;;;3.62;2.10;;;;;;;;;;4403862;32;20166;-68
2021/04/17 13:33:08;;;;;;;3.30;2.00;;;;;;;;;;4404149;32;20233;-69
2021/04/17 13:35:33;;;;;;;4.32;1.85;;;;;;;;;;4404813;32;20583;-66
2021/04/17 13:37:58;;;;;;;5.43;1.98;;;;;;;;;;4406019;32;20293;-69
2021/04/17 13:40:24;;;;;;;3.95;2.08;;;;;;;;;;4403700;32;20181;-69
2021/04/17 13:42:49;;;;;;;5.55;1.87;;;;;;;;;;4404715;32;20196;-67
2021/04/17 13:45:15;;;;;;;4.28;2.17;;;;;;;;;;4404506;32;20177;-63
2021/04/17 13:47:40;;;;;;;4.87;2.30;;;;;;;;;;4410231;32;20237;-71
2021/04/17 13:50:07;;;;;;;4.60;2.05;;;;;;;;;;4419919;32;20558;-65
2021/04/17 13:52:32;;;;;;;6.03;2.05;;;;;;;;;;4419792;32;20142;-64
2021/04/17 13:54:57;;;;;;;5.78;1.77;;;;;;;;;;4421003;32;20535;-69
2021/04/17 13:57:22;;;;;;;3.92;2.03;;;;;;;;;;4420719;32;20184;-67
2021/04/17 13:59:48;;;;;;;5.50;2.08;;;;;;;;;;4420209;32;20130;-67
2021/04/17 14:02:17;;;;;;;3.12;1.75;;;;;;;;;;4420429;32;20596;-70
2021/04/17 14:04:42;;;;;;;3.37;1.90;;;;;;;;;;4420135;32;20146;-65
2021/04/17 14:07:07;;;;;;;3.87;2.20;;;;;;;;;;4420372;32;20138;-68
2021/04/17 14:09:33;;;;;;;4.10;2.40;;;;;;;;;;4420406;32;20237;-66
2021/04/17 14:11:58;;;;;;;5.07;2.37;;;;;;;;;;4419244;32;20678;-70
2021/04/17 14:14:24;;;;;;;6.20;2.35;;;;;;;;;;4419387;32;20181;-70
2021/04/17 14:16:49;;;;;;;6.80;2.25;;;;;;;;;;4405719;32;20184;-66
2021/04/17 14:19:14;;;;;;;5.28;2.17;;;;;;;;;;4420548;32;20146;-67
2021/04/17 14:21:40;;;;;;;7.15;2.20;;;;;;;;;;4421043;32;20193;-68
2021/04/17 14:24:05;;;;;;;5.10;2.30;;;;;;;;;;4423787;32;20185;-67
2021/04/17 14:26:30;;;;;;;4.80;2.40;;;;;;;;;;4422424;32;20613;-67
2021/04/17 14:28:55;;;;;;;8.73;3.72;;;;;;;;;;4422300;32;20201;-65
2021/04/17 14:31:21;;;;;;;5.25;2.25;;;;;;;;;;4422798;32;20213;-65
2021/04/17 14:33:46;;;;;;;4.80;2.10;;;;;;;;;;4422373;32;20134;-68
2021/04/17 14:36:11;;;;;;;4.25;2.50;;;;;;;;;;4423355;32;20192;-64